Airfield :
LOGIN :

Register | Disclaimer

   EN    FR    IT 

 










Legend :    VFR   Marginal VFR   IFR   Intensive IFR   Very Intensive IFR
Visi :
Ceiling :
>= 8 km
>= 3000ft
5 to 8 km
1000 to 3000 ft
1500m to 5 km
500 to 1000 ft
800 to 1500m
200 to 500 ft
< 800m
< 200 ft
Symbols :   Thunderstorms  Fog  Heavy snow  Heavy precipitations  Wind > 20 kt
SIGMETs :     Misc.  Thunderstorms  Icing  Turbulence  Mountain Waves  Volcanic Ashes






- Airport Elevation : 82 ft
- IATA code : QIE


LFMI - Istres

CURRENT METAR :
  • 061030Z AUTO 27010KT 220V310 9999 NCD 23/13 Q1009

EXPIRED METARs :
  • 061000Z AUTO 29009KT 240V340 9999 NCD 23/13 Q1009
  • 060930Z AUTO 28008KT 230V320 9999 NCD 23/12 Q1009
  • 060900Z AUTO 27008KT 240V300 9999 NCD 22/13 Q1009 NOSIG
  • 060830Z AUTO 27008KT 240V310 9999 FEW033 21/12 Q1009 NOSIG
  • 060800Z AUTO 29009KT 240V330 CAVOK 21/12 Q1009 NOSIG

TAF TAF LFMI
Valid from the 06 at 03:00 until the 07 at 03:00 UTC


060519Z 0603/0703 28005KT CAVOK
BECMG 0611/0613 22015KT
TEMPO 0621/0703 BKN014



MET'MAP, your aeronautical weather chart ! - Copyright ORBIFLY December 2007 - Disclaimer

ORBIFLY MET'MAP TEAM :

Programming & Development : Alexandra Zaïnal
Concept & original design : Baudouin d'Aumeries
Assistance for programming : Marc-Olivier Méhu
Technical & hardware support : Manuel Goepfert

Contact : metmap@orbifly.com




SOURCES & CREDITS :

   NOAA